Atwater, New York
Current Conditions -  °F | °C
As of 3:56 PM on Friday 19 Dec 2014 (Local Time) from KITH Reporting Station
Light Snow Light Snow  
Wind Chill: -8°   Ceiling: 1100
Heat Index: -4°   Visibility: 10mi
Dew Point: -6°   Wind: 6mph
Humidity: 88%   Direction: 340°NNW
Pressure: 30.14"   Gusts: NA
Location:  42.6734°N, 76.6263°W
Report Text: KITH 192056Z 34005KT 10SM -SN OVC011 M04/M06 A3014 RMK AO2 51010 60000 T10381055 SNB30 P0000 SLP221
Loading
Personal Weather Stations






























Interactive Weather Map New forecast layout! Learn more

10-Day Weather Forecast

Advertisements
Track Severe Weather on mobile